Flight Track Log - Related Links

Times and Time Zones

All times are in EDT time to prevent confusion due to time zone crossing. See the SWA2681 flight status page for this flight to view local times or setup timezone preferences in your user account.

Time Position Orientation Groundspeed Altitude Reporting Facility
EDT Latitude Longitude Course Direction KTS MPH feet Rate Location/Type
Fri 08:40:38 PM 33.4333 -112.0333 253° West 176 203 2,100  Level Phoenix TRACON
Fri 08:41:44 PM 33.4167 -112.1000 253° West 217 250 3,700 1,905 Climbing Phoenix TRACON
Fri 08:42:44 PM 33.3833 -112.1667 239° Southwest 232 267 6,100 2,150 Climbing Phoenix TRACON
Fri 08:43:44 PM 33.3167 -112.1500 168° South 236 272 8,000 1,695 Climbing Phoenix TRACON
Fri 08:44:55 PM 33.2392 -112.1147 159° South 276 318 9,800 1,579 Climbing Albuquerque Center
Fri 08:45:57 PM 33.1794 -112.0464 136° Southeast 320 368 11,500 2,146 Climbing Albuquerque Center
Fri 08:46:58 PM 33.1753 -111.9339 93° East 343 395 14,200 2,585 Climbing Albuquerque Center
Fri 08:48:00 PM 33.1708 -111.8164 93° East 354 407 16,800 3,220 Climbing Albuquerque Center
Fri 08:49:01 PM 33.1503 -111.6794 100° East 349 402 20,800 2,488 Climbing Albuquerque Center
Fri 08:50:03 PM 33.1233 -111.5614 105° East 372 428 21,900 1,463 Climbing Albuquerque Center
Fri 08:51:04 PM 33.0953 -111.4325 105° East 398 458 23,800 1,561 Climbing Albuquerque Center
Fri 08:52:06 PM 33.0647 -111.3008 105° East 412 474 25,100 634 Climbing Albuquerque Center
Fri 08:53:07 PM 33.0344 -111.1628 105° East 427 491 25,100 488 Level Albuquerque Center
Fri 08:54:09 PM 33.0036 -111.0286 105° East 425 489 26,100 1,220 Climbing Albuquerque Center
Fri 08:55:10 PM 32.9711 -110.8903 106° East 431 496 27,600 1,366 Climbing Albuquerque Center
Fri 08:56:12 PM 32.9392 -110.7483 105° East 440 506 28,900 1,220 Climbing Albuquerque Center
Fri 08:57:13 PM 32.9042 -110.5981 105° East 450 518 30,100 1,415 Climbing Albuquerque Center
Fri 08:58:15 PM 32.8633 -110.4214 105° East 461 531 31,800 1,561 Climbing Albuquerque Center
Fri 08:59:16 PM 32.8283 -110.2736 106° East 465 535 33,300 1,463 Climbing Albuquerque Center
Fri 09:00:18 PM 32.7939 -110.1286 106° East 461 531 34,800 878 Climbing Albuquerque Center
Fri 09:01:19 PM 32.7706 -109.9789 100° East 464 534 35,100 148 Climbing Albuquerque Center
Fri 09:02:20 PM 32.7517 -109.8303 99° East 460 529 35,100  Level Albuquerque Center
Fri 09:03:22 PM 32.7333 -109.6822 98° East 457 526 35,100  Level Albuquerque Center
Fri 09:04:23 PM 32.7139 -109.5356 99° East 455 524 35,100  Level Albuquerque Center
Fri 09:05:25 PM 32.6897 -109.3578 99° East 458 527 35,100  Level Albuquerque Center
Fri 09:06:26 PM 32.6700 -109.2114 99° East 457 526 35,100 246 Level Albuquerque Center
Fri 09:07:27 PM 32.6492 -109.0639 99° East 459 528 35,600 829 Climbing Albuquerque Center
Fri 09:08:29 PM 32.6286 -108.9158 99° East 461 531 36,800 1,073 Climbing Albuquerque Center
Fri 09:09:30 PM 32.6089 -108.7681 99° East 461 531 37,800 984 Climbing Albuquerque Center
Fri 09:10:31 PM 32.5881 -108.6206 99° East 460 529 38,800 634 Climbing Albuquerque Center
Fri 09:11:33 PM 32.5678 -108.4733 99° East 458 527 39,100 146 Climbing Albuquerque Center
Fri 09:12:34 PM 32.5422 -108.2975 100° East 454 522 39,100  Level Albuquerque Center
Fri 09:13:35 PM 32.5203 -108.1506 100° East 455 524 39,100  Level Albuquerque Center
Fri 09:14:37 PM 32.5003 -108.0061 99° East 450 518 39,100  Level Albuquerque Center
Fri 09:15:38 PM 32.4786 -107.8594 100° East 452 520 39,100  Level Albuquerque Center
Fri 09:16:39 PM 32.4567 -107.7092 100° East 453 521 39,100  Level Albuquerque Center
Fri 09:17:41 PM 32.4347 -107.5631 100° East 454 522 39,100  Level Albuquerque Center
Fri 09:18:42 PM 32.4136 -107.4192 100° East 455 524 39,100  Level Albuquerque Center
Fri 09:19:43 PM 32.3919 -107.2711 100° East 457 526 39,100  Level Albuquerque Center
Fri 09:20:45 PM 32.3667 -107.0883 99° East 460 529 39,100  Level Albuquerque Center
Fri 09:21:46 PM 32.3439 -106.9406 100° East 458 527 39,100  Level Albuquerque Center
Fri 09:22:47 PM 32.3219 -106.8061 101° East 457 526 39,100  Level Albuquerque Center
Fri 09:23:49 PM 32.2992 -106.6575 100° East 460 529 39,100  Level Albuquerque Center
Fri 09:24:50 PM 32.2750 -106.5078 101° East 464 534 39,100  Level Albuquerque Center
Fri 09:25:51 PM 32.2506 -106.3581 101° East 466 536 39,100  Level Albuquerque Center
Fri 09:26:53 PM 32.2222 -106.1858 101° East 467 537 39,100  Level Albuquerque Center
Fri 09:27:54 PM 32.1969 -106.0353 101° East 467 537 39,100  Level Albuquerque Center
Fri 09:28:55 PM 32.1728 -105.8856 101° East 465 535 39,100  Level Albuquerque Center
Fri 09:29:56 PM 32.1481 -105.7367 101° East 464 534 39,100  Level Albuquerque Center
Fri 09:30:58 PM 32.1231 -105.5867 101° East 467 537 39,100  Level Albuquerque Center
Fri 09:31:59 PM 32.0989 -105.4372 101° East 466 536 39,100  Level Albuquerque Center
Fri 09:33:00 PM 32.0736 -105.2889 101° East 463 533 39,100  Level Albuquerque Center
Fri 09:34:02 PM 32.0483 -105.1392 101° East 463 533 39,100  Level Albuquerque Center
Fri 09:35:03 PM 32.0169 -104.9575 101° East 470 541 39,100  Level Albuquerque Center
Fri 09:36:04 PM 31.9911 -104.8047 101° East 473 544 39,100  Level Albuquerque Center
Fri 09:37:06 PM 31.9653 -104.6503 101° East 477 549 39,100  Level Albuquerque Center
Fri 09:38:07 PM 31.9369 -104.4958 102° East 480 552 39,100  Level Albuquerque Center
Fri 09:39:08 PM 31.9108 -104.3436 101° East 477 549 39,100  Level Albuquerque Center
Fri 09:40:09 PM 31.8836 -104.1914 102° East 475 547 39,100  Level Albuquerque Center
Fri 09:41:11 PM 31.8575 -104.0414 102° East 471 542 39,100  Level Albuquerque Center
Fri 09:42:12 PM 31.8306 -103.8900 102° East 472 543 39,100  Level Albuquerque Center
Fri 09:43:13 PM 31.7992 -103.7172 102° East 477 549 39,100  Level Albuquerque Center
Fri 09:44:14 PM 31.7717 -103.5644 102° East 478 550 39,100  Level Albuquerque Center
Fri 09:45:16 PM 31.7422 -103.4072 102° East 479 551 39,100  Level Albuquerque Center
Fri 09:46:17 PM 31.7136 -103.2539 102° East 482 555 39,100  Level Albuquerque Center
Fri 09:47:18 PM 31.6842 -103.0997 103° East 483 556 39,100  Level Albuquerque Center
Fri 09:48:19 PM 31.6547 -102.9467 103° East 482 555 39,100  Level Albuquerque Center
Fri 09:49:20 PM 31.6256 -102.7933 103° East 482 555 39,100  Level Albuquerque Center
Fri 09:50:22 PM 31.5958 -102.6389 103° East 484 557 39,100  Level Albuquerque Center
Fri 09:51:23 PM 31.5672 -102.4844 102° East 484 557 39,100  Level Albuquerque Center
Fri 09:52:24 PM 31.5322 -102.3097 103° East 490 564 39,100  Level Albuquerque Center
Fri 09:53:25 PM 31.5017 -102.1525 103° East 496 571 39,100  Level Albuquerque Center
Fri 09:54:26 PM 31.4717 -101.9983 103° East 490 564 39,100  Level Albuquerque Center
Fri 09:56:02 PM 31.4267 -101.7608 102° East 487 560 39,100  Level Houston Center
Fri 09:57:03 PM 31.3944 -101.6064 104° East 487 560 39,100  Level Houston Center
Fri 09:58:05 PM 31.3642 -101.4522 103° East 486 559 39,100  Level Houston Center
Fri 09:59:06 PM 31.3322 -101.2994 104° East 484 557 39,100  Level Houston Center
Fri 10:00:07 PM 31.2939 -101.1153 104° East 485 558 39,100  Level Houston Center
Fri 10:01:08 PM 31.2689 -100.9881 103° East 487 560 39,100  Level Houston Center
Fri 10:02:10 PM 31.2317 -100.8042 103° East 485 558 39,100  Level Houston Center
Fri 10:03:11 PM 31.1997 -100.6506 104° East 485 558 39,100  Level Houston Center
Fri 10:04:12 PM 31.1678 -100.4975 104° East 486 559 39,100  Level Houston Center
Fri 10:05:13 PM 31.1353 -100.3439 104° East 486 559 39,100 -146 Level Houston Center
Fri 10:06:15 PM 31.1036 -100.1911 104° East 485 558 38,800 -634 Descending Houston Center
Fri 10:07:16 PM 31.0706 -100.0394 104° East 481 554 37,800 -934 Descending Houston Center
Fri 10:08:17 PM 31.0386 -99.8875 104° East 481 554 36,900 -984 Descending Houston Center
Fri 10:09:18 PM 30.9950 -99.7406 109° East 480 552 35,800 -1,707 Descending Houston Center
Fri 10:10:20 PM 30.9411 -99.6003 114° Southeast 474 545 33,400 -2,049 Descending Houston Center
Fri 10:11:21 PM 30.9114 -99.4542 103° East 466 536 31,600 -1,574 Descending Houston Center
Fri 10:12:22 PM 30.8869 -99.3072 101° East 463 533 30,200 -1,918 Descending Houston Center
Fri 10:13:23 PM 30.8578 -99.1411 102° East 441 507 27,700 -2,146 Descending Houston Center
Fri 10:14:25 PM 30.8353 -99.0206 102° East 428 493 25,800 -2,000 Descending Houston Center
Fri 10:15:26 PM 30.8139 -98.8881 101° East 416 479 23,600 -2,066 Descending Houston Center
Fri 10:16:27 PM 30.7908 -98.7597 102° East 405 466 21,600 -2,016 Descending Houston Center
Fri 10:17:28 PM 30.7800 -98.6331 96° East 393 452 19,500 -2,066 Descending Houston Center
Fri 10:18:29 PM 30.7675 -98.5103 97° East 383 441 17,400 -2,066 Descending Houston Center
Fri 10:19:30 PM 30.7544 -98.3917 97° East 371 427 15,300 -2,164 Descending Houston Center
Fri 10:20:31 PM 30.7397 -98.2572 97° East 358 412 13,000 -2,098 Descending Houston Center
Fri 10:21:33 PM 30.7275 -98.1467 97° East 347 399 11,000 -1,463 Descending Houston Center
Fri 10:22:34 PM 30.6942 -98.0536 113° Southeast 323 372 10,000 -689 Descending Houston Center
Fri 10:23:35 PM 30.6347 -97.9864 136° Southeast 299 344 9,600 -1,033 Descending Houston Center
Fri 10:24:36 PM 30.5764 -97.9197 135° Southeast 293 337 7,900 -1,721 Descending Houston Center
Fri 10:25:37 PM 30.5214 -97.8539 134° Southeast 286 329 6,100 -1,561 Descending Houston Center
Fri 10:26:39 PM 30.4669 -97.7911 135° Southeast 278 320 4,700 -1,171 Descending Houston Center
Fri 10:27:40 PM 30.4144 -97.7325 136° Southeast 268 308 3,700 -639 Descending Houston Center
Fri 10:28:41 PM 30.3578 -97.7061 158° South 226 260 3,400 -590 Descending Houston Center
Fri 10:29:42 PM 30.3108 -97.6881 162° South 192 221 2,500 -836 Descending Houston Center
Fri 10:30:43 PM 30.2731 -97.6781 167° South 163 188 1,700 -738 Descending Houston Center
Fri 10:31:44 PM 30.2367 -97.6803 183° South 142 163 1,000 -689 Descending Houston Center
Fri 10:33:00 PM 30.1945 -97.6699 221° Southwest  Level Estimated
Fri 10:40:00 PM 30.1945 -97.6699 221° Southwest  Level Estimated

Login

Don't have an account? Register now (free) for customized features, flight alerts, and more!